createdAt,value
2018-06-25T00:01:30.049Z,396.20
2018-06-25T00:03:32.011Z,392.30
2018-06-25T00:05:34.002Z,388.87
2018-06-25T00:07:35.989Z,386.07
2018-06-25T00:09:37.957Z,457.75
2018-06-25T00:11:39.941Z,457.73
2018-06-25T00:13:41.931Z,469.17
2018-06-25T00:15:43.903Z,438.77
2018-06-25T00:17:45.883Z,440.15
2018-06-25T00:19:47.851Z,449.27
2018-06-25T00:21:49.841Z,417.10
2018-06-25T00:23:51.795Z,459.40
2018-06-25T00:25:53.769Z,473.47
2018-06-25T00:27:55.855Z,445.90
2018-06-25T00:29:57.823Z,429.20
2018-06-25T00:31:59.787Z,428.62
2018-06-25T00:34:01.753Z,429.98
2018-06-25T00:36:03.737Z,415.43
2018-06-25T00:38:05.705Z,427.60
2018-06-25T00:40:07.671Z,431.47
2018-06-25T00:42:09.687Z,447.73
2018-06-25T00:44:12.042Z,467.87
2018-06-25T00:46:13.871Z,465.05
2018-06-25T00:48:15.864Z,470.95
2018-06-25T00:50:17.837Z,472.37
2018-06-25T00:52:19.838Z,474.73
2018-06-25T00:54:21.790Z,504.55
2018-06-25T00:56:23.755Z,494.93
2018-06-25T00:58:25.732Z,457.38
2018-06-25T01:00:27.683Z,455.50
2018-06-25T01:02:29.673Z,472.60
2018-06-25T01:04:31.657Z,456.63
2018-06-25T01:06:33.621Z,461.77
2018-06-25T01:08:35.615Z,457.02
2018-06-25T01:10:37.586Z,453.15
2018-06-25T01:12:39.558Z,451.63
2018-06-25T01:14:41.553Z,446.00
2018-06-25T01:16:43.520Z,449.95
2018-06-25T01:18:45.489Z,444.43
2018-06-25T01:20:47.474Z,440.38
2018-06-25T01:22:49.431Z,438.22
2018-06-25T01:24:51.420Z,448.58
2018-06-25T01:26:53.661Z,441.40
2018-06-25T01:28:55.639Z,431.50
2018-06-25T01:30:57.626Z,438.68
2018-06-25T01:32:59.597Z,434.65
2018-06-25T01:35:01.585Z,434.63
2018-06-25T01:37:03.549Z,435.80
2018-06-25T01:39:05.512Z,425.62
2018-06-25T01:41:07.503Z,425.75
2018-06-25T01:43:09.470Z,433.02
2018-06-25T01:45:11.460Z,424.18
2018-06-25T01:47:13.436Z,422.02
2018-06-25T01:49:15.437Z,425.70
2018-06-25T01:51:17.413Z,414.48
2018-06-25T01:53:19.376Z,417.42
2018-06-25T01:55:21.333Z,419.45
2018-06-25T01:57:23.324Z,416.70
2018-06-25T01:59:25.302Z,413.60
2018-06-25T02:01:27.293Z,412.88
2018-06-25T02:03:29.256Z,411.15
2018-06-25T02:05:31.225Z,406.90
2018-06-25T02:07:33.217Z,402.67
2018-06-25T02:09:35.183Z,410.90
2018-06-25T02:11:37.140Z,397.45
2018-06-25T02:13:39.131Z,402.40
2018-06-25T02:15:41.087Z,400.15
2018-06-25T02:17:43.071Z,396.20
2018-06-25T02:19:45.034Z,396.48
2018-06-25T02:21:47.004Z,399.17
2018-06-25T02:23:49.000Z,389.68
2018-06-25T02:25:50.956Z,390.35
2018-06-25T02:27:52.938Z,389.23
2018-06-25T02:29:54.912Z,390.80
2018-06-25T02:31:56.874Z,384.23
2018-06-25T02:33:58.863Z,382.80
2018-06-25T02:36:00.854Z,385.35
2018-06-25T02:38:02.821Z,386.18
2018-06-25T02:40:04.788Z,376.95
2018-06-25T02:42:06.769Z,374.98
2018-06-25T02:44:08.767Z,372.15
2018-06-25T02:46:10.733Z,361.77
2018-06-25T02:48:12.709Z,354.93
2018-06-25T02:50:14.689Z,331.07
2018-06-25T02:52:16.675Z,322.27
2018-06-25T02:54:18.648Z,328.77
2018-06-25T02:56:20.616Z,322.95
2018-06-25T02:58:22.591Z,311.68
2018-06-25T03:00:24.579Z,307.65
2018-06-25T03:02:26.539Z,308.98
2018-06-25T03:04:28.516Z,311.05
2018-06-25T03:06:30.487Z,298.35
2018-06-25T03:08:32.460Z,288.30
2018-06-25T03:10:34.445Z,298.23
2018-06-25T03:12:36.409Z,287.40
2018-06-25T03:14:38.383Z,281.35
2018-06-25T03:16:40.788Z,280.62
2018-06-25T03:18:42.626Z,283.35
2018-06-25T03:20:44.599Z,289.45
2018-06-25T03:22:46.596Z,274.88
2018-06-25T03:24:48.571Z,278.02
2018-06-25T03:26:50.547Z,268.30
2018-06-25T03:28:52.519Z,268.95
2018-06-25T03:30:54.493Z,264.35
2018-06-25T03:32:56.464Z,339.12
2018-06-25T03:34:58.437Z,329.48
2018-06-25T03:37:00.412Z,383.90
2018-06-25T03:39:02.396Z,638.67
2018-06-25T03:41:04.349Z,450.83
2018-06-25T03:43:06.360Z,228.73
2018-06-25T03:45:08.300Z,128.07
2018-06-25T03:47:10.268Z,87.22
2018-06-25T03:49:12.242Z,345.57
2018-06-25T03:51:14.250Z,195.70
2018-06-25T03:53:16.236Z,334.95
2018-06-25T03:55:18.204Z,135.57
2018-06-25T03:57:20.162Z,136.40
2018-06-25T03:59:22.152Z,92.12
2018-06-25T04:01:24.208Z,73.10
2018-06-25T04:03:26.160Z,117.53
2018-06-25T04:05:28.150Z,1679.28
2018-06-25T04:07:30.137Z,191.25
2018-06-25T04:09:32.158Z,281.10
2018-06-25T04:11:34.119Z,221.35
2018-06-25T04:13:36.091Z,224.10
2018-06-25T04:15:38.068Z,230.27
2018-06-25T04:17:40.038Z,231.57
2018-06-25T04:19:42.020Z,231.20
2018-06-25T04:21:43.985Z,221.32
2018-06-25T04:23:46.012Z,221.03
2018-06-25T04:25:48.345Z,222.67
2018-06-25T04:27:50.196Z,1711.95
2018-06-25T04:29:52.168Z,257.12
2018-06-25T04:31:54.135Z,290.87
2018-06-25T04:33:56.120Z,307.48
2018-06-25T04:35:58.109Z,412.42
2018-06-25T04:38:00.104Z,423.28
2018-06-25T04:40:02.068Z,1993.13
2018-06-25T04:42:04.048Z,422.37
2018-06-25T04:44:06.028Z,513.48
2018-06-25T04:46:08.032Z,468.48
2018-06-25T04:48:10.021Z,464.20
2018-06-25T04:50:11.978Z,455.87
2018-06-25T04:52:13.975Z,440.05
2018-06-25T04:54:16.319Z,445.57
2018-06-25T04:56:18.169Z,449.58
2018-06-25T04:58:20.145Z,441.35
2018-06-25T05:00:22.119Z,444.82
2018-06-25T05:02:24.094Z,446.60
2018-06-25T05:04:26.077Z,449.45
2018-06-25T05:06:28.045Z,439.82
2018-06-25T05:08:30.040Z,430.45
2018-06-25T05:10:32.029Z,430.95
2018-06-25T05:12:34.007Z,427.35
2018-06-25T05:14:35.983Z,424.92
2018-06-25T05:16:37.950Z,427.62
2018-06-25T05:18:39.921Z,423.17
2018-06-25T05:20:41.904Z,422.52
2018-06-25T05:22:43.887Z,420.45
2018-06-25T05:24:45.873Z,414.90
2018-06-25T05:26:47.849Z,408.72
2018-06-25T05:28:49.827Z,411.38
2018-06-25T05:30:51.810Z,410.75
2018-06-25T05:32:53.790Z,411.90
2018-06-25T05:34:55.749Z,411.05
2018-06-25T05:36:57.738Z,395.60
2018-06-25T05:38:59.718Z,402.35
2018-06-25T05:41:01.683Z,394.70
2018-06-25T05:43:03.661Z,391.15
2018-06-25T05:45:05.641Z,385.25
2018-06-25T05:47:07.609Z,401.35
2018-06-25T05:49:09.591Z,398.23
2018-06-25T05:51:11.585Z,394.27
2018-06-25T05:53:13.556Z,376.10
2018-06-25T05:55:15.526Z,373.07
2018-06-25T05:57:17.517Z,384.35
2018-06-25T05:59:19.482Z,369.57
2018-06-25T06:01:21.443Z,377.38
2018-06-25T06:03:23.431Z,383.55
2018-06-25T06:05:25.404Z,384.57
2018-06-25T06:07:27.407Z,367.82
2018-06-25T06:09:29.787Z,359.75
2018-06-25T06:11:31.616Z,364.12
2018-06-25T06:13:33.595Z,364.05
2018-06-25T06:15:35.576Z,361.68
2018-06-25T06:17:37.555Z,351.20
2018-06-25T06:19:39.538Z,350.38
2018-06-25T06:21:41.505Z,366.82
2018-06-25T06:23:43.487Z,354.05
2018-06-25T06:25:45.465Z,342.50
2018-06-25T06:27:47.441Z,347.60
2018-06-25T06:29:49.422Z,347.93
2018-06-25T06:31:51.394Z,337.93
2018-06-25T06:33:53.376Z,347.73
2018-06-25T06:35:55.353Z,333.87
2018-06-25T06:37:57.693Z,338.27
2018-06-25T06:39:59.584Z,332.40
2018-06-25T06:42:01.800Z,327.57
2018-06-25T06:44:03.766Z,330.85
2018-06-25T06:46:05.759Z,317.55
2018-06-25T06:48:07.735Z,333.20
2018-06-25T06:50:09.701Z,316.10
2018-06-25T06:52:11.677Z,310.38
2018-06-25T06:54:13.659Z,316.88
2018-06-25T06:56:15.645Z,311.98
2018-06-25T06:58:17.621Z,320.93
2018-06-25T07:00:19.579Z,309.95
2018-06-25T07:02:21.563Z,321.52
2018-06-25T07:04:23.539Z,308.23
2018-06-25T07:06:25.529Z,294.67
2018-06-25T07:08:27.482Z,304.02
2018-06-25T07:10:29.564Z,314.00
2018-06-25T07:12:31.569Z,308.40
2018-06-25T07:14:33.566Z,290.27
2018-06-25T07:16:35.537Z,293.80
2018-06-25T07:18:37.519Z,289.68
2018-06-25T07:20:39.483Z,298.57
2018-06-25T07:22:41.465Z,298.35
2018-06-25T07:24:43.418Z,286.10
2018-06-25T07:26:45.397Z,295.95
2018-06-25T07:28:47.442Z,287.75
2018-06-25T07:30:49.367Z,285.22
2018-06-25T07:32:51.377Z,278.02
2018-06-25T07:34:53.354Z,275.50
2018-06-25T07:36:55.323Z,272.15
2018-06-25T07:38:57.302Z,285.27
2018-06-25T07:40:59.281Z,268.73
2018-06-25T07:43:01.655Z,278.48
2018-06-25T07:45:03.507Z,276.82
2018-06-25T07:47:05.500Z,282.35
2018-06-25T07:49:07.445Z,267.00
2018-06-25T07:51:09.413Z,273.07
2018-06-25T07:53:11.404Z,266.17
2018-06-25T07:55:13.373Z,269.10
2018-06-25T07:57:15.334Z,257.75
2018-06-25T07:59:17.705Z,261.32
2018-06-25T08:03:27.864Z,267.02
2018-06-25T08:05:29.865Z,266.00
2018-06-25T08:07:31.839Z,259.02
2018-06-25T08:09:33.810Z,262.08
2018-06-25T08:11:35.790Z,258.75
2018-06-25T08:13:37.777Z,252.82
2018-06-25T08:15:39.776Z,253.30
2018-06-25T08:17:41.747Z,247.80
2018-06-25T08:19:43.734Z,244.32
2018-06-25T08:21:45.718Z,250.55
2018-06-25T08:23:47.698Z,245.42
2018-06-25T08:25:49.682Z,249.30
2018-06-25T08:27:51.650Z,232.83
2018-06-25T08:29:53.640Z,242.97
2018-06-25T08:31:55.608Z,245.27
2018-06-25T08:33:57.676Z,238.68
2018-06-25T08:35:59.822Z,234.77
2018-06-25T08:38:01.804Z,241.00
2018-06-25T08:40:03.767Z,233.55
2018-06-25T08:42:05.760Z,234.72
2018-06-25T08:44:07.715Z,229.70
2018-06-25T08:46:09.710Z,227.13
2018-06-25T08:48:11.683Z,229.47
2018-06-25T08:50:13.862Z,229.82
2018-06-25T08:52:15.836Z,227.38
2018-06-25T08:54:17.812Z,233.72
2018-06-25T08:56:19.862Z,222.30
2018-06-25T08:58:21.931Z,228.32
2018-06-25T09:00:24.315Z,217.70
2018-06-25T09:02:26.163Z,217.57
2018-06-25T09:04:28.215Z,210.80
2018-06-25T09:06:30.112Z,213.77
2018-06-25T09:08:32.108Z,222.88
2018-06-25T09:10:34.056Z,210.70
2018-06-25T09:12:36.038Z,212.78
2018-06-25T09:14:38.017Z,213.90
2018-06-25T09:16:40.009Z,210.63
2018-06-25T09:18:41.982Z,207.67
2018-06-25T09:20:43.964Z,207.92
2018-06-25T09:22:45.919Z,206.78
2018-06-25T09:24:47.895Z,203.90
2018-06-25T09:26:49.872Z,207.45
2018-06-25T09:31:00.318Z,202.68
2018-06-25T09:33:02.292Z,202.10
2018-06-25T09:35:04.268Z,199.93
2018-06-25T09:37:06.238Z,195.35
2018-06-25T09:39:08.236Z,198.00
2018-06-25T09:41:10.219Z,194.95
2018-06-25T09:43:12.575Z,200.05
2018-06-25T09:45:14.569Z,192.55
2018-06-25T09:47:16.538Z,192.13
2018-06-25T09:49:18.494Z,192.18
2018-06-25T09:51:20.468Z,197.07
2018-06-25T09:53:22.437Z,193.95
2018-06-25T09:55:24.490Z,188.42
2018-06-25T09:57:26.464Z,183.03
2018-06-25T09:59:28.443Z,187.03
2018-06-25T10:01:30.417Z,188.42
2018-06-25T10:03:32.425Z,185.20
2018-06-25T10:05:34.836Z,184.93
2018-06-25T10:07:36.814Z,186.22
2018-06-25T10:09:38.804Z,184.22
2018-06-25T10:11:40.770Z,180.50
2018-06-25T10:13:42.741Z,177.22
2018-06-25T10:15:44.726Z,173.35
2018-06-25T10:17:46.686Z,177.72
2018-06-25T10:19:48.658Z,177.32
2018-06-25T10:21:50.659Z,176.00
2018-06-25T10:23:52.611Z,174.18
2018-06-25T10:25:54.605Z,169.90
2018-06-25T10:27:56.583Z,169.37
2018-06-25T10:29:58.573Z,171.60
2018-06-25T10:32:00.556Z,169.57
2018-06-25T10:34:02.506Z,163.65
2018-06-25T10:36:04.507Z,161.73
2018-06-25T10:38:06.478Z,159.55
2018-06-25T10:40:08.441Z,169.25
2018-06-25T10:42:10.485Z,160.30
2018-06-25T10:44:12.417Z,158.90
2018-06-25T10:46:14.794Z,156.10
2018-06-25T10:48:16.641Z,158.30
2018-06-25T10:50:18.619Z,162.75
2018-06-25T10:52:20.599Z,157.52
2018-06-25T10:54:22.565Z,156.55
2018-06-25T10:56:24.639Z,154.72
2018-06-25T10:58:26.616Z,148.80
2018-06-25T11:00:28.667Z,153.02
2018-06-25T11:02:30.577Z,154.45
2018-06-25T11:04:32.549Z,151.95
2018-06-25T11:06:34.517Z,153.15
2018-06-25T11:08:36.497Z,154.45
2018-06-25T11:10:38.857Z,149.12
2018-06-25T11:12:40.723Z,151.15
2018-06-25T11:14:42.677Z,152.17
2018-06-25T11:16:44.655Z,148.95
2018-06-25T11:18:46.637Z,144.10
2018-06-25T11:20:48.618Z,148.40
2018-06-25T11:22:50.597Z,145.90
2018-06-25T11:24:52.581Z,143.35
2018-06-25T11:26:54.621Z,136.07
2018-06-25T11:28:56.554Z,135.55
2018-06-25T11:30:58.547Z,140.62
2018-06-25T11:33:00.487Z,140.75
2018-06-25T11:35:02.477Z,132.12
2018-06-25T11:37:04.447Z,137.57
2018-06-25T11:39:06.425Z,130.67
2018-06-25T11:41:08.413Z,134.27
2018-06-25T11:43:10.386Z,136.68
2018-06-25T11:45:12.766Z,133.40
2018-06-25T11:47:14.631Z,139.03
2018-06-25T11:49:16.606Z,127.72
2018-06-25T11:51:18.589Z,127.42
2018-06-25T11:53:20.569Z,133.90
2018-06-25T11:55:22.530Z,129.03
2018-06-25T11:57:24.519Z,127.82
2018-06-25T11:59:26.488Z,132.37
2018-06-25T12:01:28.471Z,130.55
2018-06-25T12:03:30.477Z,123.82
2018-06-25T12:05:32.422Z,127.00
2018-06-25T12:07:34.393Z,126.62
2018-06-25T12:09:36.383Z,121.07
2018-06-25T12:11:38.379Z,121.28
2018-06-25T12:13:40.330Z,122.72
2018-06-25T12:15:42.315Z,123.80
2018-06-25T12:17:44.295Z,118.80
2018-06-25T12:19:46.298Z,120.02
2018-06-25T12:21:48.232Z,118.90
2018-06-25T12:23:50.210Z,116.12
2018-06-25T12:25:52.178Z,115.10
2018-06-25T12:27:54.228Z,116.50
2018-06-25T12:29:56.136Z,119.95
2018-06-25T12:31:58.142Z,113.50
2018-06-25T12:34:00.094Z,114.77
2018-06-25T12:36:02.049Z,114.08
2018-06-25T12:38:04.108Z,109.90
2018-06-25T12:40:06.003Z,110.05
2018-06-25T12:42:07.976Z,109.97
2018-06-25T12:44:09.952Z,115.72
2018-06-25T12:46:11.920Z,108.83
2018-06-25T12:48:13.962Z,110.60
2018-06-25T12:50:15.916Z,112.05
2018-06-25T12:52:17.868Z,104.85
2018-06-25T12:54:19.854Z,112.28
2018-06-25T12:56:21.817Z,106.97
2018-06-25T12:58:23.786Z,105.75
2018-06-25T13:00:25.770Z,105.03
2018-06-25T13:02:27.752Z,107.45
2018-06-25T13:04:29.709Z,108.45
2018-06-25T13:06:31.693Z,108.45
2018-06-25T13:08:33.672Z,102.27
2018-06-25T13:10:35.663Z,106.37
2018-06-25T13:12:38.091Z,101.72
2018-06-25T13:14:40.098Z,103.22
2018-06-25T13:16:42.078Z,98.07
2018-06-25T13:18:44.058Z,105.10
2018-06-25T13:20:46.064Z,99.00
2018-06-25T13:22:47.981Z,104.27
2018-06-25T13:24:49.951Z,99.95
2018-06-25T13:26:51.912Z,100.42
2018-06-25T13:28:53.902Z,99.07
2018-06-25T13:30:55.911Z,99.03
2018-06-25T13:32:58.103Z,96.80
2018-06-25T13:35:00.074Z,97.00
2018-06-25T13:37:02.040Z,98.42
2018-06-25T13:39:04.002Z,96.12
2018-06-25T13:41:05.964Z,97.65
2018-06-25T13:43:07.935Z,96.78
2018-06-25T13:45:09.900Z,93.80
2018-06-25T13:47:11.882Z,95.95
2018-06-25T13:49:14.247Z,92.97
2018-06-25T13:51:16.091Z,93.10
2018-06-25T13:53:18.062Z,95.65
2018-06-25T13:55:20.039Z,97.60
2018-06-25T13:57:21.997Z,94.92
2018-06-25T13:59:23.983Z,91.25
2018-06-25T14:01:25.954Z,90.17
2018-06-25T14:03:27.921Z,89.80
2018-06-25T14:05:29.925Z,89.85
2018-06-25T14:07:31.900Z,93.82
2018-06-25T14:09:33.855Z,87.90
2018-06-25T14:11:35.827Z,88.37
2018-06-25T14:13:37.797Z,88.12
2018-06-25T14:15:39.795Z,88.95
2018-06-25T14:17:42.147Z,89.87
2018-06-25T14:19:43.992Z,86.35
2018-06-25T14:21:45.953Z,87.72
2018-06-25T14:23:47.908Z,82.22
2018-06-25T14:25:49.882Z,84.40
2018-06-25T14:27:51.876Z,84.25
2018-06-25T14:29:53.848Z,83.72
2018-06-25T14:31:55.870Z,81.95
2018-06-25T14:33:57.831Z,82.00
2018-06-25T14:35:59.805Z,80.97
2018-06-25T14:38:01.768Z,79.53
2018-06-25T14:40:03.795Z,79.00
2018-06-25T14:42:06.013Z,81.05
2018-06-25T14:44:08.072Z,80.05
2018-06-25T14:46:10.052Z,80.55
2018-06-25T14:48:12.105Z,80.05
2018-06-25T14:50:14.034Z,77.72
2018-06-25T14:52:16.000Z,78.92
2018-06-25T14:54:17.985Z,77.90
2018-06-25T14:56:19.942Z,77.60
2018-06-25T14:58:21.906Z,76.45
2018-06-25T15:00:23.869Z,78.75
2018-06-25T15:02:25.843Z,77.75
2018-06-25T15:04:27.832Z,74.15
2018-06-25T15:06:29.805Z,72.00
2018-06-25T15:08:31.770Z,72.95
2018-06-25T15:10:33.777Z,72.35
2018-06-25T15:12:35.748Z,78.33
2018-06-25T15:14:37.747Z,72.67
2018-06-25T15:16:39.719Z,73.87
2018-06-25T15:18:41.889Z,77.15
2018-06-25T15:20:43.857Z,73.42
2018-06-25T15:22:45.815Z,72.80
2018-06-25T15:24:47.805Z,73.85
2018-06-25T15:26:49.771Z,68.65
2018-06-25T15:28:52.129Z,67.80
2018-06-25T15:30:53.981Z,70.97
2018-06-25T15:32:55.955Z,70.55
2018-06-25T15:34:57.946Z,66.22
2018-06-25T15:36:59.897Z,71.35
2018-06-25T15:39:01.875Z,71.72
2018-06-25T15:41:03.838Z,70.50
2018-06-25T15:43:05.805Z,65.75
2018-06-25T15:45:07.784Z,66.57
2018-06-25T15:47:09.742Z,69.15
2018-06-25T15:49:11.713Z,70.20
2018-06-25T15:51:13.697Z,65.80
2018-06-25T15:53:15.720Z,66.55
2018-06-25T15:55:17.643Z,64.20
2018-06-25T15:57:19.610Z,64.12
2018-06-25T15:59:21.593Z,64.22
2018-06-25T16:01:23.568Z,62.53
2018-06-25T16:03:25.527Z,64.05
2018-06-25T16:05:27.524Z,65.10
2018-06-25T16:07:29.501Z,66.25
2018-06-25T16:09:31.832Z,61.98
2018-06-25T16:11:33.703Z,61.42
2018-06-25T16:13:35.676Z,61.50
2018-06-25T16:15:37.660Z,64.12
2018-06-25T16:17:39.613Z,60.05
2018-06-25T16:19:41.578Z,59.85
2018-06-25T16:21:43.602Z,58.68
2018-06-25T16:23:45.534Z,58.90
2018-06-25T16:25:47.483Z,61.73
2018-06-25T16:27:49.473Z,58.08
2018-06-25T16:29:51.453Z,62.50
2018-06-25T16:31:53.437Z,55.35
2018-06-25T16:33:55.393Z,59.50
2018-06-25T16:35:57.365Z,59.40
2018-06-25T16:37:59.344Z,57.95
2018-06-25T16:40:01.315Z,57.50
2018-06-25T16:42:03.397Z,58.28
2018-06-25T16:44:05.331Z,56.70
2018-06-25T16:46:07.287Z,58.33
2018-06-25T16:48:09.269Z,57.10
2018-06-25T16:50:11.249Z,54.35
2018-06-25T16:52:13.228Z,55.65
2018-06-25T16:54:15.178Z,50.55
2018-06-25T16:56:17.164Z,54.80
2018-06-25T16:58:19.152Z,56.40
2018-06-25T17:00:21.112Z,52.65
2018-06-25T17:02:23.104Z,54.93
2018-06-25T17:04:25.086Z,48.70
2018-06-25T17:06:27.067Z,51.48
2018-06-25T17:08:29.055Z,52.53
2018-06-25T17:10:31.037Z,50.23
2018-06-25T17:12:32.980Z,53.55
2018-06-25T17:14:34.952Z,50.70
2018-06-25T17:16:36.928Z,49.85
2018-06-25T17:18:38.888Z,50.30
2018-06-25T17:20:40.858Z,52.50
2018-06-25T17:22:42.847Z,52.38
2018-06-25T17:24:44.819Z,51.05
2018-06-25T17:26:46.800Z,48.95
2018-06-25T17:28:48.833Z,49.45
2018-06-25T17:30:50.744Z,51.10
2018-06-25T17:32:52.723Z,48.83
2018-06-25T17:34:54.695Z,47.98
2018-06-25T17:36:56.682Z,48.80
2018-06-25T17:38:58.653Z,50.40
2018-06-25T17:41:00.684Z,45.17
2018-06-25T17:43:02.657Z,46.65
2018-06-25T17:45:04.616Z,47.95
2018-06-25T17:47:06.633Z,47.83
2018-06-25T17:49:08.602Z,47.38
2018-06-25T17:51:10.563Z,47.98
2018-06-25T17:53:12.553Z,48.68
2018-06-25T17:55:14.514Z,44.40
2018-06-25T17:57:16.502Z,47.60
2018-06-25T17:59:18.467Z,46.18
2018-06-25T18:01:20.692Z,46.95
2018-06-25T18:03:22.680Z,43.23
2018-06-25T18:05:24.668Z,46.73
2018-06-25T18:07:26.665Z,46.83
2018-06-25T18:09:28.622Z,43.15
2018-06-25T18:11:30.576Z,49.53
2018-06-25T18:13:32.567Z,47.08
2018-06-25T18:15:34.545Z,47.58
2018-06-25T18:17:36.525Z,45.35
2018-06-25T18:19:38.502Z,44.15
2018-06-25T18:21:40.486Z,48.48
2018-06-25T18:23:42.443Z,42.13
2018-06-25T18:25:44.439Z,41.95
2018-06-25T18:27:46.380Z,41.42
2018-06-25T18:29:48.389Z,43.55
2018-06-25T18:31:50.359Z,43.40
2018-06-25T18:33:52.322Z,42.08
2018-06-25T18:35:54.301Z,41.60
2018-06-25T18:37:56.259Z,43.98
2018-06-25T18:39:58.243Z,40.80
2018-06-25T18:42:00.232Z,41.35
2018-06-25T18:44:02.212Z,41.50
2018-06-25T18:46:04.161Z,40.45
2018-06-25T18:48:06.162Z,40.88
2018-06-25T18:50:08.121Z,40.55
2018-06-25T18:52:10.098Z,42.00
2018-06-25T18:54:12.049Z,41.45
2018-06-25T18:56:14.042Z,42.78
2018-06-25T18:58:16.013Z,41.45
2018-06-25T19:00:17.995Z,39.90
2018-06-25T19:02:19.964Z,40.10
2018-06-25T19:04:21.940Z,39.23
2018-06-25T19:06:23.913Z,36.65
2018-06-25T19:08:25.866Z,38.17
2018-06-25T19:10:27.879Z,39.75
2018-06-25T19:12:29.833Z,41.42
2018-06-25T19:14:31.800Z,39.58
2018-06-25T19:16:33.797Z,41.35
2018-06-25T19:18:35.758Z,37.65
2018-06-25T19:20:37.758Z,38.75
2018-06-25T19:22:39.735Z,37.10
2018-06-25T19:24:41.704Z,36.28
2018-06-25T19:26:43.688Z,40.15
2018-06-25T19:28:45.718Z,36.75
2018-06-25T19:30:48.409Z,37.15
2018-06-25T19:32:50.283Z,37.48
2018-06-25T19:34:52.245Z,35.58
2018-06-25T19:36:54.259Z,36.40
2018-06-25T19:38:56.233Z,36.73
2018-06-25T19:40:58.199Z,36.50
2018-06-25T19:43:00.181Z,35.23
2018-06-25T19:45:02.130Z,36.80
2018-06-25T19:47:04.090Z,35.92
2018-06-25T19:49:06.063Z,35.60
2018-06-25T19:51:08.049Z,34.33
2018-06-25T19:53:10.027Z,34.53
2018-06-25T19:55:12.015Z,36.23
2018-06-25T19:57:13.970Z,35.43
2018-06-25T19:59:15.930Z,33.18
2018-06-25T20:01:17.961Z,34.10
2018-06-25T20:03:19.939Z,34.95
2018-06-25T20:05:21.901Z,34.58
2018-06-25T20:07:23.886Z,35.38
2018-06-25T20:09:25.859Z,34.15
2018-06-25T20:11:27.820Z,33.05
2018-06-25T20:13:29.798Z,34.25
2018-06-25T20:15:31.805Z,34.98
2018-06-25T20:17:33.770Z,35.73
2018-06-25T20:19:35.770Z,33.65
2018-06-25T20:21:37.717Z,33.78
2018-06-25T20:23:39.689Z,33.15
2018-06-25T20:25:41.721Z,33.98
2018-06-25T20:27:43.638Z,33.35
2018-06-25T20:29:45.614Z,34.18
2018-06-25T20:31:47.584Z,33.48
2018-06-25T20:33:49.551Z,32.48
2018-06-25T20:35:51.507Z,31.82
2018-06-25T20:37:53.496Z,34.25
2018-06-25T20:39:55.871Z,33.10
2018-06-25T20:41:57.741Z,32.58
2018-06-25T20:43:59.770Z,31.90
2018-06-25T20:46:01.743Z,32.30
2018-06-25T20:48:03.748Z,31.27
2018-06-25T20:50:05.733Z,31.60
2018-06-25T20:52:07.700Z,32.08
2018-06-25T20:54:09.689Z,30.55
2018-06-25T20:56:11.657Z,31.73
2018-06-25T20:58:13.658Z,31.82
2018-06-25T21:00:15.623Z,30.50
2018-06-25T21:02:17.611Z,31.93
2018-06-25T21:04:19.570Z,31.33
2018-06-25T21:06:21.542Z,29.80
2018-06-25T21:08:23.936Z,30.57
2018-06-25T21:10:25.775Z,31.27
2018-06-25T21:12:27.740Z,31.07
2018-06-25T21:14:29.689Z,29.77
2018-06-25T21:16:31.662Z,32.58
2018-06-25T21:18:33.644Z,31.55
2018-06-25T21:20:35.634Z,29.05
2018-06-25T21:22:37.596Z,30.62
2018-06-25T21:24:39.570Z,29.90
2018-06-25T21:26:41.570Z,31.37
2018-06-25T21:28:43.573Z,29.90
2018-06-25T21:30:45.543Z,28.55
2018-06-25T21:32:47.518Z,29.48
2018-06-25T21:34:49.500Z,28.87
2018-06-25T21:36:51.472Z,30.60
2018-06-25T21:38:53.444Z,29.60
2018-06-25T21:40:55.408Z,29.42
2018-06-25T21:42:57.373Z,29.30
2018-06-25T21:44:59.350Z,30.15
2018-06-25T21:47:01.331Z,30.08
2018-06-25T21:49:03.270Z,28.65
2018-06-25T21:51:05.251Z,29.48
2018-06-25T21:53:07.230Z,28.80
2018-06-25T21:55:09.218Z,27.17
2018-06-25T21:57:11.175Z,28.40
2018-06-25T21:59:13.128Z,29.27
2018-06-25T22:01:15.105Z,30.48
2018-06-25T22:03:17.063Z,25.65
2018-06-25T22:05:19.991Z,28.98
2018-06-25T22:07:21.976Z,28.32
2018-06-25T22:09:23.923Z,27.50
2018-06-25T22:11:25.900Z,26.20
2018-06-25T22:13:27.884Z,28.42
2018-06-25T22:15:29.847Z,27.35
2018-06-25T22:17:31.818Z,27.02
2018-06-25T22:19:33.771Z,24.92
2018-06-25T22:21:35.736Z,27.58
2018-06-25T22:23:37.731Z,26.68
2018-06-25T22:25:39.716Z,27.37
2018-06-25T22:27:41.685Z,26.65
2018-06-25T22:29:43.647Z,27.17
2018-06-25T22:31:45.616Z,26.20
2018-06-25T22:33:47.591Z,27.52
2018-06-25T22:35:49.563Z,26.52
2018-06-25T22:37:51.551Z,26.37
2018-06-25T22:39:53.525Z,27.22
2018-06-25T22:41:55.483Z,24.92
2018-06-25T22:43:57.459Z,27.87
2018-06-25T22:45:59.445Z,26.10
2018-06-25T22:48:01.678Z,26.25
2018-06-25T22:50:03.646Z,24.23
2018-06-25T22:52:05.615Z,25.90
2018-06-25T22:54:07.588Z,26.82
2018-06-25T22:56:09.544Z,26.57
2018-06-25T22:58:11.528Z,23.80
2018-06-25T23:00:13.501Z,23.77
2018-06-25T23:02:15.463Z,25.55
2018-06-25T23:04:17.441Z,26.02
2018-06-25T23:06:19.403Z,24.70
2018-06-25T23:08:21.397Z,24.50
2018-06-25T23:10:23.347Z,25.08
2018-06-25T23:12:25.313Z,25.00
2018-06-25T23:14:27.681Z,23.70
2018-06-25T23:16:29.513Z,24.15
2018-06-25T23:18:31.501Z,24.63
2018-06-25T23:20:33.465Z,24.40
2018-06-25T23:22:35.543Z,23.50
2018-06-25T23:24:37.489Z,23.90
2018-06-25T23:26:39.465Z,24.47
2018-06-25T23:28:41.441Z,23.07
2018-06-25T23:30:43.429Z,25.45
2018-06-25T23:32:45.389Z,24.02
2018-06-25T23:34:47.366Z,23.05
2018-06-25T23:36:49.333Z,24.07
2018-06-25T23:38:51.293Z,23.57
2018-06-25T23:40:53.261Z,22.80
2018-06-25T23:42:55.235Z,23.10
2018-06-25T23:44:57.185Z,22.98
2018-06-25T23:46:59.167Z,23.05
2018-06-25T23:49:01.133Z,22.07
2018-06-25T23:51:03.109Z,22.17
2018-06-25T23:53:05.078Z,23.05
2018-06-25T23:55:07.041Z,21.95
2018-06-25T23:57:09.034Z,22.73
2018-06-25T23:59:11.007Z,22.22
